createdAt,value
2023-04-07T00:01:57.242Z,7.50
2023-04-07T00:04:25.696Z,7.28
2023-04-07T00:06:53.233Z,7.23
2023-04-07T00:09:20.899Z,7.15
2023-04-07T00:11:48.902Z,7.30
2023-04-07T00:14:16.539Z,7.16
2023-04-07T00:16:43.931Z,7.18
2023-04-07T00:19:11.518Z,7.24
2023-04-07T00:21:41.130Z,7.23
2023-04-07T00:24:08.703Z,7.26
2023-04-07T00:26:36.827Z,7.31
2023-04-07T00:29:04.570Z,7.31
2023-04-07T00:31:32.514Z,7.31
2023-04-07T00:34:00.414Z,7.27
2023-04-07T00:36:28.791Z,7.31
2023-04-07T00:38:56.301Z,7.24
2023-04-07T00:41:23.990Z,7.46
2023-04-07T00:43:52.510Z,7.54
2023-04-07T00:46:20.366Z,7.58
2023-04-07T00:48:47.944Z,7.49
2023-04-07T00:51:15.412Z,7.48
2023-04-07T00:53:43.815Z,7.38
2023-04-07T00:56:11.759Z,7.29
2023-04-07T00:58:39.052Z,7.36
2023-04-07T01:01:16.325Z,7.34
2023-04-07T01:04:06.835Z,7.23
2023-04-07T01:06:35.712Z,7.56
2023-04-07T01:09:18.252Z,7.44
2023-04-07T01:11:49.905Z,7.19
2023-04-07T01:14:19.065Z,6.93
2023-04-07T01:16:48.352Z,7.02
2023-04-07T01:19:19.715Z,7.25
2023-04-07T01:21:48.149Z,7.24
2023-04-07T01:24:19.193Z,7.33
2023-04-07T01:26:47.294Z,7.25
2023-04-07T01:29:36.187Z,7.27
2023-04-07T01:32:06.385Z,7.35
2023-04-07T01:34:39.128Z,7.58
2023-04-07T01:37:06.875Z,7.46
2023-04-07T01:39:35.448Z,7.54
2023-04-07T01:42:03.641Z,7.60
2023-04-07T01:44:31.762Z,7.38
2023-04-07T01:46:59.850Z,7.31
2023-04-07T01:49:27.535Z,7.27
2023-04-07T01:51:54.961Z,7.31
2023-04-07T01:54:22.708Z,7.23
2023-04-07T01:56:50.863Z,7.62
2023-04-07T01:59:18.610Z,7.60
2023-04-07T02:01:48.906Z,7.32
2023-04-07T02:04:22.409Z,7.39
2023-04-07T02:07:10.148Z,7.47
2023-04-07T02:09:39.106Z,7.38
2023-04-07T02:12:07.066Z,7.77
2023-04-07T02:14:35.397Z,7.56
2023-04-07T02:17:03.913Z,7.75
2023-04-07T02:19:33.165Z,7.84
2023-04-07T02:22:01.549Z,7.74
2023-04-07T02:24:29.546Z,7.68
2023-04-07T02:26:57.515Z,7.25
2023-04-07T02:29:25.598Z,7.39
2023-04-07T02:31:52.949Z,7.31
2023-04-07T02:34:20.698Z,7.24
2023-04-07T02:36:48.588Z,7.11
2023-04-07T02:39:16.760Z,7.07
2023-04-07T02:41:44.942Z,7.47
2023-04-07T02:44:12.985Z,7.09
2023-04-07T02:46:41.468Z,7.42
2023-04-07T02:49:08.869Z,7.25
2023-04-07T02:51:38.280Z,6.93
2023-04-07T02:54:07.488Z,7.11
2023-04-07T02:56:36.235Z,7.10
2023-04-07T02:59:04.128Z,7.08
2023-04-07T03:01:34.904Z,7.05
2023-04-07T03:04:03.138Z,7.31
2023-04-07T03:06:31.742Z,7.30
2023-04-07T03:09:01.462Z,7.06
2023-04-07T03:11:32.453Z,7.29
2023-04-07T03:14:00.752Z,7.29
2023-04-07T03:16:28.712Z,7.40
2023-04-07T03:18:56.866Z,7.22
2023-04-07T03:21:24.951Z,7.13
2023-04-07T03:23:52.716Z,7.18
2023-04-07T03:26:21.850Z,7.31
2023-04-07T03:28:50.888Z,7.27
2023-04-07T03:31:19.434Z,7.14
2023-04-07T03:33:51.348Z,7.04
2023-04-07T03:36:20.062Z,7.09
2023-04-07T03:38:48.099Z,7.06
2023-04-07T03:41:17.977Z,6.99
2023-04-07T03:43:48.381Z,7.07
2023-04-07T03:46:22.404Z,7.10
2023-04-07T03:48:50.530Z,7.14
2023-04-07T03:51:20.225Z,7.21
2023-04-07T03:53:49.000Z,7.22
2023-04-07T03:56:19.749Z,7.57
2023-04-07T03:58:48.983Z,7.81
2023-04-07T04:01:19.968Z,7.72
2023-04-07T04:03:54.539Z,7.52
2023-04-07T04:06:29.658Z,7.65
2023-04-07T04:09:00.672Z,7.43
2023-04-07T04:11:29.934Z,7.45
2023-04-07T04:13:57.809Z,7.55
2023-04-07T04:16:25.394Z,7.22
2023-04-07T04:18:53.199Z,7.35
2023-04-07T04:23:57.737Z,7.40
2023-04-07T04:26:27.138Z,7.65
2023-04-07T04:29:00.132Z,7.53
2023-04-07T04:31:31.529Z,7.57
2023-04-07T04:34:00.635Z,7.63
2023-04-07T04:36:31.752Z,7.53
2023-04-07T04:38:59.981Z,7.55
2023-04-07T04:41:28.396Z,7.47
2023-04-07T04:43:57.752Z,7.42
2023-04-07T04:46:27.191Z,7.56
2023-04-07T04:49:01.744Z,7.69
2023-04-07T04:51:30.224Z,7.62
2023-04-07T04:54:01.214Z,7.47
2023-04-07T04:56:34.142Z,7.47
2023-04-07T04:59:05.312Z,7.32
2023-04-07T05:01:34.986Z,7.67
2023-04-07T05:04:04.467Z,7.55
2023-04-07T05:06:32.828Z,7.31
2023-04-07T05:09:01.544Z,7.36
2023-04-07T05:11:35.537Z,7.53
2023-04-07T05:14:11.221Z,7.32
2023-04-07T05:16:46.113Z,7.48
2023-04-07T05:19:17.814Z,7.35
2023-04-07T05:21:47.741Z,7.42
2023-04-07T05:24:20.832Z,6.88
2023-04-07T05:26:55.094Z,7.42
2023-04-07T05:29:23.166Z,7.60
2023-04-07T05:31:51.675Z,7.24
2023-04-07T05:34:23.435Z,7.64
2023-04-07T05:36:59.502Z,7.40
2023-04-07T05:39:36.449Z,7.32
2023-04-07T05:42:14.149Z,7.49
2023-04-07T05:44:43.296Z,7.17
2023-04-07T05:47:11.575Z,7.44
2023-04-07T05:49:47.179Z,7.34
2023-04-07T05:52:22.114Z,7.47
2023-04-07T05:54:53.092Z,6.67
2023-04-07T05:57:28.203Z,7.34
2023-04-07T06:02:42.220Z,7.50
2023-04-07T06:05:19.599Z,7.41
2023-04-07T06:07:53.124Z,7.58
2023-04-07T06:10:26.986Z,7.35
2023-04-07T06:13:03.693Z,7.72
2023-04-07T06:15:35.139Z,7.38
2023-04-07T06:18:05.138Z,7.42
2023-04-07T06:20:54.728Z,7.53
2023-04-07T06:23:23.136Z,7.73
2023-04-07T06:26:00.354Z,7.89
2023-04-07T06:28:35.782Z,8.04
2023-04-07T06:31:07.283Z,7.64
2023-04-07T06:33:36.018Z,7.50
2023-04-07T06:36:08.390Z,7.76
2023-04-07T06:38:41.123Z,7.89
2023-04-07T06:41:17.628Z,7.96
2023-04-07T06:44:00.168Z,8.13
2023-04-07T06:46:32.303Z,7.91
2023-04-07T06:49:00.512Z,7.50
2023-04-07T06:51:31.070Z,7.67
2023-04-07T06:54:03.121Z,7.82
2023-04-07T06:56:44.349Z,7.81
2023-04-07T06:59:14.502Z,7.39
2023-04-07T07:01:47.892Z,8.08
2023-04-07T07:07:09.424Z,8.18
2023-04-07T07:12:25.740Z,8.09
2023-04-07T07:14:56.188Z,7.80
2023-04-07T07:17:23.977Z,7.72
2023-04-07T07:19:52.858Z,8.07
2023-04-07T07:22:31.133Z,8.35
2023-04-07T07:25:00.805Z,8.46
2023-04-07T07:27:30.529Z,8.59
2023-04-07T07:30:05.708Z,8.58
2023-04-07T07:35:21.210Z,8.50
2023-04-07T07:37:57.252Z,8.51
2023-04-07T07:40:25.849Z,8.74
2023-04-07T07:42:53.987Z,8.35
2023-04-07T07:45:29.159Z,8.32
2023-04-07T07:47:57.399Z,8.60
2023-04-07T07:50:28.132Z,8.68
2023-04-07T07:52:58.191Z,8.62
2023-04-07T07:55:27.306Z,8.04
2023-04-07T07:57:55.891Z,8.32
2023-04-07T08:00:25.528Z,8.26
2023-04-07T08:05:36.428Z,8.10
2023-04-07T08:08:11.789Z,7.99
2023-04-07T08:10:44.174Z,7.94
2023-04-07T08:15:53.307Z,7.75
2023-04-07T08:18:28.269Z,8.18
2023-04-07T08:20:58.178Z,8.38
2023-04-07T08:23:26.179Z,8.28
2023-04-07T08:26:00.233Z,8.35
2023-04-07T08:31:05.044Z,8.64
2023-04-07T08:33:35.421Z,8.43
2023-04-07T08:36:05.833Z,8.24
2023-04-07T08:38:34.545Z,8.40
2023-04-07T08:41:13.259Z,8.29
2023-04-07T08:43:50.988Z,8.33
2023-04-07T08:46:22.163Z,8.37
2023-04-07T08:48:51.902Z,8.87
2023-04-07T08:51:31.996Z,8.81
2023-04-07T08:56:45.167Z,8.75
2023-04-07T08:59:19.143Z,8.44
2023-04-07T09:01:50.188Z,8.56
2023-04-07T09:04:29.135Z,8.49
2023-04-07T09:06:57.335Z,8.17
2023-04-07T09:09:33.163Z,8.50
2023-04-07T09:12:05.273Z,8.52
2023-04-07T09:17:08.146Z,8.79
2023-04-07T09:19:37.372Z,8.74
2023-04-07T09:22:06.640Z,8.31
2023-04-07T09:24:42.416Z,8.88
2023-04-07T09:29:54.425Z,9.09
2023-04-07T09:32:43.100Z,9.36
2023-04-07T09:37:48.194Z,9.48
2023-04-07T09:40:27.814Z,9.58
2023-04-07T09:43:01.422Z,9.43
2023-04-07T09:45:35.863Z,9.46
2023-04-07T09:48:12.101Z,9.03
2023-04-07T09:50:50.095Z,9.13
2023-04-07T09:53:25.576Z,9.10
2023-04-07T09:55:53.473Z,9.62
2023-04-07T10:01:01.192Z,9.51
2023-04-07T10:03:32.479Z,9.42
2023-04-07T10:06:11.204Z,9.45
2023-04-07T10:08:47.115Z,9.43
2023-04-07T10:11:21.554Z,9.35
2023-04-07T10:14:08.345Z,9.77
2023-04-07T10:16:37.339Z,9.48
2023-04-07T10:19:15.136Z,9.83
2023-04-07T10:21:44.352Z,10.16
2023-04-07T10:24:33.133Z,10.10
2023-04-07T10:27:04.162Z,9.85
2023-04-07T10:34:58.206Z,10.38
2023-04-07T10:37:26.776Z,10.61
2023-04-07T10:40:17.614Z,10.33
2023-04-07T10:42:52.139Z,10.04
2023-04-07T10:45:41.249Z,10.28
2023-04-07T10:48:15.327Z,9.95
2023-04-07T10:50:45.608Z,9.98
2023-04-07T10:53:15.749Z,10.03
2023-04-07T10:55:50.421Z,10.18
2023-04-07T11:01:04.144Z,10.78
2023-04-07T11:03:37.142Z,10.63
2023-04-07T11:06:08.424Z,11.11
2023-04-07T11:08:38.293Z,10.84
2023-04-07T11:11:10.556Z,10.64
2023-04-07T11:13:45.325Z,10.23
2023-04-07T11:16:14.460Z,10.06
2023-04-07T11:18:42.592Z,10.01
2023-04-07T11:21:13.115Z,10.03
2023-04-07T11:23:48.828Z,10.34
2023-04-07T11:26:21.216Z,10.72
2023-04-07T11:28:53.762Z,10.47
2023-04-07T11:31:23.406Z,10.62
2023-04-07T11:33:58.165Z,10.38
2023-04-07T11:39:25.054Z,10.68
2023-04-07T11:41:53.842Z,10.67
2023-04-07T11:44:31.028Z,10.51
2023-04-07T11:47:05.230Z,10.64
2023-04-07T11:49:42.197Z,10.81
2023-04-07T11:52:24.780Z,10.74
2023-04-07T11:55:03.131Z,10.71
2023-04-07T11:57:33.139Z,10.58
2023-04-07T12:00:08.130Z,10.54
2023-04-07T12:02:40.351Z,10.25
2023-04-07T12:05:10.552Z,10.44
2023-04-07T12:10:23.480Z,10.46
2023-04-07T12:13:00.120Z,10.54
2023-04-07T12:15:31.048Z,10.59
2023-04-07T12:20:55.235Z,10.33
2023-04-07T12:23:25.754Z,10.37
2023-04-07T12:25:59.168Z,10.16
2023-04-07T12:28:36.116Z,10.28
2023-04-07T12:31:09.017Z,10.42
2023-04-07T12:33:46.835Z,10.25
2023-04-07T12:36:21.147Z,10.60
2023-04-07T12:38:49.806Z,10.40
2023-04-07T12:41:18.277Z,10.30
2023-04-07T12:43:56.168Z,10.11
2023-04-07T12:46:32.532Z,10.36
2023-04-07T12:49:02.080Z,10.52
2023-04-07T12:51:30.900Z,10.75
2023-04-07T12:56:36.139Z,10.62
2023-04-07T12:59:07.397Z,10.48
2023-04-07T13:01:44.105Z,10.77
2023-04-07T13:04:16.147Z,10.91
2023-04-07T13:06:46.788Z,11.01
2023-04-07T13:11:50.482Z,11.12
2023-04-07T13:14:19.417Z,10.82
2023-04-07T13:16:49.598Z,10.71
2023-04-07T13:19:23.810Z,10.73
2023-04-07T13:21:57.134Z,10.45
2023-04-07T13:24:37.764Z,10.39
2023-04-07T13:27:06.349Z,10.57
2023-04-07T13:29:34.868Z,10.55
2023-04-07T13:32:19.129Z,10.61
2023-04-07T13:34:48.796Z,10.75
2023-04-07T13:37:27.524Z,10.71
2023-04-07T13:40:00.037Z,10.59
2023-04-07T13:42:28.346Z,10.42
2023-04-07T13:44:59.565Z,10.46
2023-04-07T13:50:07.754Z,10.86
2023-04-07T13:52:44.319Z,11.09
2023-04-07T13:55:20.769Z,11.28
2023-04-07T13:58:01.441Z,11.20
2023-04-07T14:01:26.546Z,11.63
2023-04-07T14:04:00.877Z,11.63
2023-04-07T14:06:36.661Z,11.03
2023-04-07T14:09:06.660Z,11.25
2023-04-07T14:11:35.792Z,11.53
2023-04-07T14:16:46.396Z,11.10
2023-04-07T14:19:14.379Z,10.95
2023-04-07T14:21:50.122Z,10.89
2023-04-07T14:24:20.261Z,11.01
2023-04-07T14:26:55.238Z,10.99
2023-04-07T14:29:30.314Z,11.16
2023-04-07T14:31:59.442Z,10.83
2023-04-07T14:34:36.427Z,10.76
2023-04-07T14:37:08.393Z,10.99
2023-04-07T14:39:37.263Z,11.10
2023-04-07T14:42:05.256Z,11.22
2023-04-07T14:44:38.240Z,11.10
2023-04-07T14:47:18.171Z,10.90
2023-04-07T14:49:58.265Z,10.71
2023-04-07T14:52:37.679Z,10.84
2023-04-07T14:55:12.391Z,10.71
2023-04-07T14:57:42.965Z,10.71
2023-04-07T15:00:22.346Z,10.39
2023-04-07T15:02:58.764Z,10.36
2023-04-07T15:05:33.393Z,10.39
2023-04-07T15:08:09.124Z,10.32
2023-04-07T15:10:42.201Z,10.37
2023-04-07T15:13:22.278Z,10.18
2023-04-07T15:18:32.661Z,10.41
2023-04-07T15:21:07.680Z,10.58
2023-04-07T15:23:38.011Z,10.43
2023-04-07T15:26:17.284Z,10.58
2023-04-07T15:28:54.509Z,10.49
2023-04-07T15:31:26.345Z,10.46
2023-04-07T15:36:34.084Z,10.20
2023-04-07T15:39:07.005Z,10.08
2023-04-07T15:44:20.363Z,10.44
2023-04-07T15:46:51.384Z,10.45
2023-04-07T15:49:24.305Z,10.48
2023-04-07T15:51:56.940Z,10.44
2023-04-07T15:54:26.301Z,10.33
2023-04-07T15:57:09.192Z,10.36
2023-04-07T15:59:47.458Z,10.55
2023-04-07T16:02:24.419Z,10.46
2023-04-07T16:04:54.231Z,10.29
2023-04-07T16:07:28.551Z,10.52
2023-04-07T16:09:57.301Z,10.49
2023-04-07T16:12:34.402Z,10.57
2023-04-07T16:15:03.429Z,10.54
2023-04-07T16:17:35.228Z,10.57
2023-04-07T16:20:14.939Z,10.47
2023-04-07T16:22:46.470Z,10.50
2023-04-07T16:25:22.348Z,10.48
2023-04-07T16:27:56.123Z,10.59
2023-04-07T16:35:40.372Z,10.73
2023-04-07T16:38:15.313Z,10.71
2023-04-07T16:41:03.271Z,10.54
2023-04-07T16:43:34.826Z,10.34
2023-04-07T16:46:17.240Z,10.60
2023-04-07T16:48:48.597Z,10.46
2023-04-07T16:51:29.720Z,10.49
2023-04-07T16:53:57.693Z,10.66
2023-04-07T16:56:26.047Z,10.56
2023-04-07T16:58:54.189Z,10.68
2023-04-07T17:01:22.590Z,10.69
2023-04-07T17:04:01.444Z,10.59
2023-04-07T17:06:32.830Z,10.51
2023-04-07T17:09:00.796Z,10.42
2023-04-07T17:14:16.292Z,10.21
2023-04-07T17:16:46.256Z,10.41
2023-04-07T17:19:22.549Z,10.59
2023-04-07T17:21:52.320Z,10.66
2023-04-07T17:24:25.542Z,10.66
2023-04-07T17:27:00.167Z,10.58
2023-04-07T17:29:31.411Z,10.58
2023-04-07T17:32:03.710Z,10.63
2023-04-07T17:34:33.339Z,10.50
2023-04-07T17:37:03.213Z,10.52
2023-04-07T17:39:33.357Z,10.65
2023-04-07T17:42:11.228Z,10.51
2023-04-07T17:44:40.841Z,10.76
2023-04-07T17:47:13.185Z,10.61
2023-04-07T17:49:47.043Z,10.61
2023-04-07T17:52:26.577Z,10.66
2023-04-07T17:54:54.964Z,10.68
2023-04-07T17:57:28.188Z,10.57
2023-04-07T18:00:09.233Z,10.72
2023-04-07T18:02:41.257Z,10.66
2023-04-07T18:05:17.204Z,10.37
2023-04-07T18:07:52.288Z,10.51
2023-04-07T18:13:09.939Z,10.24
2023-04-07T18:15:40.020Z,10.14
2023-04-07T18:20:54.236Z,10.28
2023-04-07T18:23:26.717Z,10.01
2023-04-07T18:26:04.741Z,10.18
2023-04-07T18:28:36.792Z,10.19
2023-04-07T18:31:07.611Z,10.13
2023-04-07T18:33:42.364Z,10.05
2023-04-07T18:36:19.434Z,10.04
2023-04-07T18:38:50.671Z,10.09
2023-04-07T18:41:22.290Z,9.98
2023-04-07T18:44:07.337Z,9.80
2023-04-07T18:46:38.316Z,9.79
2023-04-07T18:49:11.531Z,9.75
2023-04-07T18:51:52.228Z,9.99
2023-04-07T18:57:00.243Z,9.65
2023-04-07T18:59:36.205Z,9.72
2023-04-07T19:02:06.545Z,9.77
2023-04-07T19:04:45.039Z,9.71
2023-04-07T19:07:14.741Z,9.68
2023-04-07T19:09:45.447Z,9.72
2023-04-07T19:12:19.462Z,9.62
2023-04-07T19:14:53.794Z,9.30
2023-04-07T19:17:27.396Z,9.36
2023-04-07T19:20:02.416Z,9.39
2023-04-07T19:22:30.548Z,9.29
2023-04-07T19:25:00.114Z,9.26
2023-04-07T19:27:32.495Z,9.24
2023-04-07T19:30:09.147Z,9.24
2023-04-07T19:32:37.980Z,9.66
2023-04-07T19:35:09.433Z,9.34
2023-04-07T19:37:38.284Z,9.47
2023-04-07T19:40:20.625Z,9.60
2023-04-07T19:42:50.274Z,9.35
2023-04-07T19:45:18.155Z,9.09
2023-04-07T19:47:50.327Z,9.19
2023-04-07T19:50:24.590Z,9.23
2023-04-07T19:53:00.231Z,9.40
2023-04-07T19:55:39.115Z,9.36
2023-04-07T19:58:19.122Z,9.39
2023-04-07T20:00:55.306Z,9.60
2023-04-07T20:03:27.371Z,9.45
2023-04-07T20:05:57.392Z,9.19
2023-04-07T20:11:03.292Z,9.26
2023-04-07T20:13:42.148Z,9.46
2023-04-07T20:18:49.313Z,8.78
2023-04-07T20:21:16.957Z,9.14
2023-04-07T20:23:46.663Z,9.11
2023-04-07T20:26:23.895Z,9.09
2023-04-07T20:28:55.166Z,8.75
2023-04-07T20:31:25.213Z,8.96
2023-04-07T20:33:59.129Z,9.02
2023-04-07T20:36:32.253Z,8.57
2023-04-07T20:41:38.663Z,8.80
2023-04-07T20:44:09.364Z,8.82
2023-04-07T20:46:39.185Z,8.76
2023-04-07T20:49:08.182Z,8.90
2023-04-07T20:51:36.899Z,8.89
2023-04-07T20:54:07.883Z,8.46
2023-04-07T20:56:37.257Z,8.21
2023-04-07T20:59:05.976Z,8.41
2023-04-07T21:01:43.286Z,8.60
2023-04-07T21:04:12.783Z,8.67
2023-04-07T21:06:51.230Z,8.71
2023-04-07T21:12:03.614Z,8.54
2023-04-07T21:14:32.264Z,8.56
2023-04-07T21:17:13.616Z,8.42
2023-04-07T21:19:43.568Z,8.35
2023-04-07T21:22:13.118Z,8.41
2023-04-07T21:24:41.532Z,8.52
2023-04-07T21:27:18.190Z,8.63
2023-04-07T21:29:53.385Z,8.36
2023-04-07T21:32:23.272Z,8.45
2023-04-07T21:34:54.862Z,8.42
2023-04-07T21:37:24.636Z,8.29
2023-04-07T21:39:54.071Z,8.30
2023-04-07T21:44:58.484Z,7.95
2023-04-07T21:47:26.885Z,7.90
2023-04-07T21:49:56.247Z,7.89
2023-04-07T21:52:28.267Z,8.02
2023-04-07T21:54:55.827Z,7.80
2023-04-07T21:57:29.224Z,7.61
2023-04-07T22:00:00.902Z,7.63
2023-04-07T22:02:30.760Z,7.52
2023-04-07T22:05:00.818Z,7.91
2023-04-07T22:07:28.843Z,7.93
2023-04-07T22:10:01.203Z,8.05
2023-04-07T22:12:29.153Z,8.21
2023-04-07T22:14:58.698Z,8.14
2023-04-07T22:17:27.052Z,8.13
2023-04-07T22:19:56.157Z,8.08
2023-04-07T22:22:24.116Z,7.92
2023-04-07T22:24:53.612Z,7.69
2023-04-07T22:27:24.237Z,7.69
2023-04-07T22:29:53.246Z,7.58
2023-04-07T22:32:23.468Z,7.91
2023-04-07T22:34:51.008Z,8.21
2023-04-07T22:37:19.524Z,7.86
2023-04-07T22:39:49.350Z,8.14
2023-04-07T22:42:18.635Z,7.98
2023-04-07T22:44:46.974Z,7.66
2023-04-07T22:47:14.628Z,7.77
2023-04-07T22:49:47.131Z,7.98
2023-04-07T22:52:16.678Z,8.10
2023-04-07T22:54:46.335Z,8.19
2023-04-07T22:57:16.171Z,7.90
2023-04-07T22:59:43.974Z,8.10
2023-04-07T23:02:12.121Z,8.50
2023-04-07T23:04:41.315Z,7.80
2023-04-07T23:07:10.492Z,7.72
2023-04-07T23:09:40.273Z,8.10
2023-04-07T23:12:08.686Z,7.96
2023-04-07T23:14:37.276Z,8.04
2023-04-07T23:17:04.810Z,7.94
2023-04-07T23:19:32.265Z,8.24
2023-04-07T23:22:00.195Z,8.22
2023-04-07T23:24:28.209Z,8.03
2023-04-07T23:26:57.190Z,7.96
2023-04-07T23:29:28.338Z,7.83
2023-04-07T23:31:59.299Z,7.77
2023-04-07T23:34:27.081Z,7.89
2023-04-07T23:36:54.384Z,8.02
2023-04-07T23:39:21.939Z,8.19
2023-04-07T23:41:52.668Z,8.14
2023-04-07T23:44:20.661Z,8.38
2023-04-07T23:46:50.599Z,8.46
2023-04-07T23:49:18.355Z,8.46
2023-04-07T23:51:46.517Z,8.24
2023-04-07T23:54:14.372Z,8.37
2023-04-07T23:56:42.631Z,8.42
2023-04-07T23:59:10.253Z,8.54
